Terminal Aerodrome Forecast
Issued by NWS

Home | Current Version | Previous Version | Graphics & Text | Print | Product List | Glossary On
Versions: 1 2 3 4 5 6 7 8 9 10 11 12 13 14 15 16 17 18 19
410
FTUS42 KMHX 182321
TAFPGV
TAF
KPGV 182321Z 1900/1924 11010KT P6SM BKN200
     FM190600 VRB03KT P6SM BKN040
     FM190900 VRB03KT P6SM BKN030
     FM191300 VRB03KT P6SM OVC015
     FM192000 20005KT P6SM BKN040
      AMD LTD TO CLD VIS AND WIND=

USA.gov is the U.S. government's official web portal to all federal, state and local government web resources and services.